createdAt,value
2022-11-25T00:01:41.813Z,102.10
2022-11-25T00:04:11.197Z,101.40
2022-11-25T00:06:47.236Z,101.10
2022-11-25T00:09:17.022Z,103.00
2022-11-25T00:11:47.164Z,99.90
2022-11-25T00:14:18.432Z,96.60
2022-11-25T00:16:48.813Z,98.10
2022-11-25T00:19:18.245Z,96.70
2022-11-25T00:21:47.445Z,95.90
2022-11-25T00:24:19.343Z,99.30
2022-11-25T00:26:50.146Z,99.00
2022-11-25T00:29:19.338Z,99.10
2022-11-25T00:31:48.468Z,101.80
2022-11-25T00:34:17.767Z,100.40
2022-11-25T00:36:56.770Z,100.70
2022-11-25T00:39:30.370Z,102.70
2022-11-25T00:42:28.180Z,100.90
2022-11-25T00:44:57.318Z,101.90
2022-11-25T00:47:29.551Z,100.10
2022-11-25T00:49:58.794Z,105.30
2022-11-25T00:52:30.302Z,108.90
2022-11-25T00:55:03.591Z,103.00
2022-11-25T00:57:34.155Z,101.30
2022-11-25T01:00:05.940Z,99.30
2022-11-25T01:02:38.503Z,96.60
2022-11-25T01:05:10.510Z,97.10
2022-11-25T01:07:39.587Z,97.00
2022-11-25T01:10:09.394Z,101.40
2022-11-25T01:12:40.784Z,98.50
2022-11-25T01:15:10.478Z,100.50
2022-11-25T01:17:39.689Z,99.10
2022-11-25T01:20:11.642Z,100.30
2022-11-25T01:22:41.830Z,106.00
2022-11-25T01:25:11.353Z,100.30
2022-11-25T01:27:43.229Z,102.70
2022-11-25T01:30:13.724Z,104.70
2022-11-25T01:32:42.966Z,101.70
2022-11-25T01:35:14.243Z,105.20
2022-11-25T01:37:43.392Z,104.70
2022-11-25T01:40:15.831Z,107.70
2022-11-25T01:42:49.485Z,104.00
2022-11-25T01:45:35.103Z,108.10
2022-11-25T01:48:18.843Z,108.40
2022-11-25T01:50:49.904Z,106.30
2022-11-25T01:53:21.591Z,106.50
2022-11-25T01:56:04.081Z,108.00
2022-11-25T01:58:42.494Z,109.50
2022-11-25T02:01:12.214Z,107.20
2022-11-25T02:03:47.866Z,109.20
2022-11-25T02:06:29.040Z,108.20
2022-11-25T02:09:09.420Z,108.60
2022-11-25T02:11:44.140Z,108.00
2022-11-25T02:14:17.187Z,107.50
2022-11-25T02:16:48.695Z,106.60
2022-11-25T02:19:37.261Z,109.90
2022-11-25T02:22:12.245Z,109.50
2022-11-25T02:24:48.921Z,106.20
2022-11-25T02:27:19.683Z,105.60
2022-11-25T02:29:52.509Z,106.00
2022-11-25T02:32:26.816Z,106.40
2022-11-25T02:34:56.063Z,104.00
2022-11-25T02:37:25.724Z,108.20
2022-11-25T02:39:56.007Z,107.70
2022-11-25T02:42:29.297Z,105.10
2022-11-25T02:45:01.136Z,104.50
2022-11-25T02:47:30.532Z,103.80
2022-11-25T02:50:02.434Z,103.50
2022-11-25T02:52:31.971Z,105.10
2022-11-25T02:55:03.460Z,104.50
2022-11-25T02:57:32.664Z,98.10
2022-11-25T03:00:01.959Z,104.20
2022-11-25T03:02:31.310Z,98.30
2022-11-25T03:05:06.121Z,100.10
2022-11-25T03:07:37.500Z,96.00
2022-11-25T03:10:08.407Z,96.60
2022-11-25T03:12:42.449Z,98.00
2022-11-25T03:15:12.366Z,98.00
2022-11-25T03:17:42.303Z,97.40
2022-11-25T03:20:14.542Z,100.40
2022-11-25T03:22:44.285Z,97.30
2022-11-25T03:25:15.027Z,99.50
2022-11-25T03:27:45.345Z,94.00
2022-11-25T03:30:25.138Z,98.40
2022-11-25T03:32:56.547Z,101.00
2022-11-25T03:35:28.001Z,96.70
2022-11-25T03:38:00.039Z,101.30
2022-11-25T03:40:29.223Z,101.80
2022-11-25T03:42:58.199Z,97.30
2022-11-25T03:45:27.367Z,103.80
2022-11-25T03:48:01.286Z,101.70
2022-11-25T03:50:30.436Z,102.60
2022-11-25T03:53:07.593Z,104.60
2022-11-25T03:55:41.727Z,99.30
2022-11-25T03:58:14.017Z,101.40
2022-11-25T04:03:13.554Z,98.50
2022-11-25T04:05:42.892Z,96.80
2022-11-25T04:08:14.420Z,95.20
2022-11-25T04:10:50.793Z,91.80
2022-11-25T04:13:23.105Z,92.90
2022-11-25T04:15:52.967Z,93.80
2022-11-25T04:18:22.383Z,89.90
2022-11-25T04:20:54.293Z,87.60
2022-11-25T04:23:23.488Z,86.90
2022-11-25T04:25:58.275Z,91.00
2022-11-25T04:28:33.362Z,86.50
2022-11-25T04:31:08.171Z,88.10
2022-11-25T04:33:38.811Z,95.30
2022-11-25T04:36:09.220Z,90.70
2022-11-25T04:38:44.633Z,86.70
2022-11-25T04:41:17.228Z,89.70
2022-11-25T04:43:47.241Z,87.00
2022-11-25T04:46:28.494Z,78.30
2022-11-25T04:49:05.064Z,81.80
2022-11-25T04:51:35.619Z,77.50
2022-11-25T04:54:06.565Z,75.60
2022-11-25T04:56:36.233Z,78.80
2022-11-25T04:59:24.223Z,81.90
2022-11-25T05:01:53.365Z,81.30
2022-11-25T05:04:34.722Z,89.40
2022-11-25T05:07:06.833Z,137.10
2022-11-25T05:09:37.383Z,132.60
2022-11-25T05:12:22.997Z,93.70
2022-11-25T05:14:56.710Z,76.10
2022-11-25T05:17:31.243Z,69.90
2022-11-25T05:20:04.884Z,69.60
2022-11-25T05:22:37.886Z,143.50
2022-11-25T05:25:11.058Z,152.60
2022-11-25T05:27:50.144Z,110.40
2022-11-25T05:30:22.414Z,84.90
2022-11-25T05:32:51.805Z,66.10
2022-11-25T05:35:22.076Z,66.30
2022-11-25T05:37:51.180Z,68.20
2022-11-25T05:40:20.330Z,66.20
2022-11-25T05:43:04.031Z,71.50
2022-11-25T05:45:39.743Z,235.20
2022-11-25T05:48:15.756Z,256.90
2022-11-25T05:50:45.117Z,130.30
2022-11-25T05:53:18.518Z,91.70
2022-11-25T05:58:57.688Z,73.20
2022-11-25T06:01:30.123Z,78.10
2022-11-25T06:04:04.739Z,78.50
2022-11-25T06:06:34.019Z,76.40
2022-11-25T06:09:05.231Z,81.90
2022-11-25T06:11:35.374Z,71.40
2022-11-25T06:14:04.505Z,72.40
2022-11-25T06:16:36.461Z,72.20
2022-11-25T06:19:17.375Z,67.50
2022-11-25T06:21:51.729Z,72.80
2022-11-25T06:24:30.624Z,74.30
2022-11-25T06:27:03.591Z,76.00
2022-11-25T06:29:32.906Z,70.90
2022-11-25T06:32:06.008Z,72.70
2022-11-25T06:34:49.759Z,73.10
2022-11-25T06:37:33.695Z,68.50
2022-11-25T06:40:03.919Z,60.90
2022-11-25T06:42:33.845Z,58.90
2022-11-25T06:45:03.020Z,66.10
2022-11-25T06:47:32.733Z,66.00
2022-11-25T06:50:01.885Z,65.00
2022-11-25T06:52:43.538Z,67.70
2022-11-25T06:55:13.556Z,65.60
2022-11-25T06:57:47.970Z,67.30
2022-11-25T07:00:22.468Z,67.20
2022-11-25T07:02:55.969Z,64.20
2022-11-25T07:05:26.084Z,68.30
2022-11-25T07:07:59.044Z,77.50
2022-11-25T07:10:32.655Z,72.80
2022-11-25T07:13:03.924Z,70.80
2022-11-25T07:15:35.310Z,67.70
2022-11-25T07:18:04.776Z,54.00
2022-11-25T07:20:36.512Z,54.00
2022-11-25T07:23:05.748Z,52.50
2022-11-25T07:25:38.656Z,52.30
2022-11-25T07:28:07.617Z,53.80
2022-11-25T07:33:27.873Z,50.60
2022-11-25T07:35:57.126Z,49.40
2022-11-25T07:38:32.232Z,42.80
2022-11-25T07:41:13.696Z,44.90
2022-11-25T07:44:00.611Z,54.90
2022-11-25T07:46:44.056Z,45.90
2022-11-25T07:49:18.381Z,43.50
2022-11-25T07:51:59.914Z,42.40
2022-11-25T07:54:29.208Z,45.00
2022-11-25T07:56:58.368Z,44.80
2022-11-25T07:59:27.869Z,54.40
2022-11-25T08:01:57.106Z,68.40
2022-11-25T08:04:26.304Z,45.40
2022-11-25T08:06:55.471Z,51.00
2022-11-25T08:09:27.204Z,42.80
2022-11-25T08:11:56.481Z,41.80
2022-11-25T08:14:31.148Z,40.20
2022-11-25T08:17:05.776Z,37.90
2022-11-25T08:19:40.706Z,36.30
2022-11-25T08:22:10.399Z,43.50
2022-11-25T08:24:40.085Z,44.30
2022-11-25T08:29:46.055Z,37.60
2022-11-25T08:32:23.488Z,42.60
2022-11-25T08:34:53.862Z,42.20
2022-11-25T08:37:26.513Z,47.00
2022-11-25T08:40:14.686Z,44.20
2022-11-25T08:42:44.367Z,47.10
2022-11-25T08:45:13.737Z,51.10
2022-11-25T08:47:42.944Z,36.20
2022-11-25T08:50:15.083Z,38.00
2022-11-25T08:52:44.412Z,40.60
2022-11-25T08:55:16.891Z,44.70
2022-11-25T08:57:52.829Z,42.60
2022-11-25T09:00:23.223Z,38.70
2022-11-25T09:02:52.760Z,37.80
2022-11-25T09:05:24.332Z,39.70
2022-11-25T09:08:13.307Z,37.50
2022-11-25T09:10:42.817Z,40.20
2022-11-25T09:13:14.325Z,42.40
2022-11-25T09:15:46.425Z,45.70
2022-11-25T09:18:22.517Z,45.00
2022-11-25T09:20:56.152Z,38.20
2022-11-25T09:23:31.190Z,34.00
2022-11-25T09:26:01.849Z,32.80
2022-11-25T09:28:42.699Z,36.50
2022-11-25T09:31:40.824Z,37.50
2022-11-25T09:34:12.067Z,39.40
2022-11-25T09:36:46.625Z,51.10
2022-11-25T09:39:16.121Z,44.10
2022-11-25T09:42:41.103Z,41.50
2022-11-25T09:46:05.533Z,50.70
2022-11-25T09:49:20.554Z,36.30
2022-11-25T09:52:44.180Z,45.90
2022-11-25T09:55:24.081Z,39.80
2022-11-25T09:58:31.349Z,33.90
2022-11-25T10:01:10.145Z,33.90
2022-11-25T10:04:00.181Z,34.70
2022-11-25T10:06:52.059Z,36.60
2022-11-25T10:09:36.538Z,34.10
2022-11-25T10:12:35.176Z,34.90
2022-11-25T10:15:53.115Z,39.30
2022-11-25T10:18:50.533Z,42.00
2022-11-25T10:21:23.408Z,45.60
2022-11-25T10:23:52.782Z,38.80
2022-11-25T10:26:38.460Z,38.80
2022-11-25T10:29:13.871Z,37.30
2022-11-25T10:31:57.064Z,37.80
2022-11-25T10:34:42.323Z,45.00
2022-11-25T10:37:56.287Z,42.40
2022-11-25T10:40:28.670Z,45.20
2022-11-25T10:43:05.252Z,52.00
2022-11-25T10:45:47.448Z,54.70
2022-11-25T10:49:08.020Z,47.00
2022-11-25T10:51:50.180Z,48.50
2022-11-25T10:54:58.944Z,54.40
2022-11-25T10:57:32.163Z,78.60
2022-11-25T11:00:35.375Z,62.50
2022-11-25T11:03:28.845Z,54.30
2022-11-25T11:06:03.667Z,51.70
2022-11-25T11:08:47.200Z,53.50
2022-11-25T11:11:24.339Z,54.70
2022-11-25T11:14:19.547Z,54.00
2022-11-25T11:16:57.440Z,49.60
2022-11-25T11:19:30.381Z,47.10
2022-11-25T11:22:27.987Z,51.50
2022-11-25T11:25:35.819Z,49.30
2022-11-25T11:28:37.316Z,53.70
2022-11-25T11:31:18.326Z,62.10
2022-11-25T11:33:47.553Z,56.20
2022-11-25T11:36:44.735Z,58.60
2022-11-25T11:39:21.029Z,62.20
2022-11-25T11:42:03.455Z,53.00
2022-11-25T11:45:01.986Z,56.90
2022-11-25T11:48:05.289Z,53.80
2022-11-25T11:50:52.367Z,51.60
2022-11-25T11:53:50.228Z,47.80
2022-11-25T11:56:50.638Z,48.40
2022-11-25T12:00:00.166Z,50.20
2022-11-25T12:02:44.028Z,50.00
2022-11-25T12:05:21.212Z,52.70
2022-11-25T12:08:18.203Z,51.10
2022-11-25T12:14:02.547Z,45.20
2022-11-25T12:16:40.872Z,49.60
2022-11-25T12:20:09.917Z,49.10
2022-11-25T12:23:04.284Z,45.90
2022-11-25T12:25:39.427Z,42.90
2022-11-25T12:28:30.999Z,40.20
2022-11-25T12:31:12.096Z,43.50
2022-11-25T12:34:04.400Z,44.30
2022-11-25T12:36:46.813Z,46.80
2022-11-25T12:39:46.619Z,50.40
2022-11-25T12:42:26.538Z,43.80
2022-11-25T12:45:01.209Z,46.10
2022-11-25T12:47:53.648Z,49.00
2022-11-25T12:51:14.566Z,49.50
2022-11-25T12:54:07.163Z,46.30
2022-11-25T12:57:08.460Z,46.60
2022-11-25T13:00:40.663Z,46.20
2022-11-25T13:03:51.494Z,49.50
2022-11-25T13:07:13.108Z,54.40
2022-11-25T13:10:14.440Z,55.00
2022-11-25T13:13:05.304Z,56.00
2022-11-25T13:15:49.116Z,53.60
2022-11-25T13:18:26.224Z,51.20
2022-11-25T13:21:08.715Z,50.40
2022-11-25T13:23:49.944Z,52.90
2022-11-25T13:26:33.995Z,49.70
2022-11-25T13:29:29.468Z,46.20
2022-11-25T13:32:31.427Z,51.60
2022-11-25T13:35:38.168Z,47.40
2022-11-25T13:38:30.636Z,46.80
2022-11-25T13:41:22.327Z,44.60
2022-11-25T13:44:10.482Z,45.60
2022-11-25T13:46:44.392Z,48.20
2022-11-25T13:49:51.797Z,58.80
2022-11-25T13:52:34.566Z,53.80
2022-11-25T13:55:33.794Z,42.80
2022-11-25T13:58:24.257Z,41.50
2022-11-25T14:01:29.958Z,42.00
2022-11-25T14:04:01.163Z,42.10
2022-11-25T14:06:52.798Z,46.80
2022-11-25T14:09:35.501Z,51.80
2022-11-25T14:12:40.852Z,51.80
2022-11-25T14:16:06.921Z,53.00
2022-11-25T14:19:43.299Z,54.00
2022-11-25T14:22:35.931Z,54.80
2022-11-25T14:25:19.184Z,59.40
2022-11-25T14:28:03.648Z,67.70
2022-11-25T14:30:53.588Z,75.30
2022-11-25T14:33:35.922Z,79.10
2022-11-25T14:36:15.876Z,77.50
2022-11-25T14:39:00.002Z,72.00
2022-11-25T14:42:10.126Z,69.50
2022-11-25T14:44:58.503Z,68.70
2022-11-25T14:47:39.213Z,62.10
2022-11-25T14:50:34.162Z,58.60
2022-11-25T14:53:14.951Z,54.30
2022-11-25T14:55:49.146Z,51.20
2022-11-25T14:58:20.662Z,48.50
2022-11-25T15:00:58.170Z,66.10
2022-11-25T15:03:34.231Z,56.10
2022-11-25T15:06:07.097Z,55.90
2022-11-25T15:08:56.113Z,55.90
2022-11-25T15:11:31.732Z,58.80
2022-11-25T15:14:07.183Z,53.60
2022-11-25T15:16:44.904Z,55.40
2022-11-25T15:19:21.124Z,55.80
2022-11-25T15:24:58.664Z,73.50
2022-11-25T15:27:33.369Z,69.80
2022-11-25T15:30:22.152Z,75.20
2022-11-25T15:32:55.331Z,78.30
2022-11-25T15:35:27.369Z,77.80
2022-11-25T15:40:43.177Z,65.70
2022-11-25T15:43:31.945Z,66.10
2022-11-25T15:46:14.988Z,66.80
2022-11-25T15:48:50.229Z,64.90
2022-11-25T15:51:36.164Z,67.20
2022-11-25T15:54:19.937Z,66.00
2022-11-25T15:57:16.264Z,64.80
2022-11-25T15:59:52.642Z,64.80
2022-11-25T16:02:34.969Z,59.30
2022-11-25T16:05:16.337Z,59.60
2022-11-25T16:07:50.863Z,58.40
2022-11-25T16:10:23.090Z,57.10
2022-11-25T16:16:02.884Z,57.00
2022-11-25T16:18:42.513Z,58.30
2022-11-25T16:21:23.580Z,55.40
2022-11-25T16:24:11.704Z,51.40
2022-11-25T16:26:54.186Z,56.60
2022-11-25T16:29:56.816Z,56.90
2022-11-25T16:32:33.505Z,55.40
2022-11-25T16:35:20.689Z,53.50
2022-11-25T16:37:49.930Z,60.70
2022-11-25T16:40:19.353Z,58.70
2022-11-25T16:42:50.379Z,59.10
2022-11-25T16:45:26.475Z,60.90
2022-11-25T16:47:56.810Z,59.30
2022-11-25T16:50:25.767Z,58.00
2022-11-25T16:52:56.087Z,55.50
2022-11-25T16:55:26.710Z,57.10
2022-11-25T16:57:55.695Z,57.70
2022-11-25T17:00:27.009Z,54.20
2022-11-25T17:02:56.231Z,57.90
2022-11-25T17:05:29.079Z,59.40
2022-11-25T17:07:58.422Z,58.10
2022-11-25T17:10:27.721Z,55.70
2022-11-25T17:12:59.234Z,61.90
2022-11-25T17:15:42.328Z,70.30
2022-11-25T17:18:15.408Z,82.20
2022-11-25T17:20:46.146Z,99.20
2022-11-25T17:23:22.430Z,100.60
2022-11-25T17:25:56.621Z,103.60
2022-11-25T17:28:28.346Z,105.30
2022-11-25T17:30:57.568Z,107.10
2022-11-25T17:33:28.284Z,103.70
2022-11-25T17:35:58.941Z,102.50
2022-11-25T17:38:30.417Z,94.60
2022-11-25T17:41:01.301Z,88.70
2022-11-25T17:43:34.837Z,90.90
2022-11-25T17:46:16.141Z,90.50
2022-11-25T17:48:48.817Z,88.50
2022-11-25T17:51:20.945Z,85.20
2022-11-25T17:53:50.067Z,81.10
2022-11-25T17:56:30.171Z,81.10
2022-11-25T17:59:06.598Z,85.50
2022-11-25T18:01:39.142Z,92.30
2022-11-25T18:04:25.719Z,89.90
2022-11-25T18:07:05.395Z,92.70
2022-11-25T18:09:38.862Z,87.90
2022-11-25T18:12:28.223Z,93.20
2022-11-25T18:14:57.809Z,95.40
2022-11-25T18:17:26.893Z,97.30
2022-11-25T18:19:58.851Z,106.00
2022-11-25T18:22:30.630Z,106.30
2022-11-25T18:25:10.780Z,107.30
2022-11-25T18:27:59.951Z,109.30
2022-11-25T18:30:38.632Z,123.50
2022-11-25T18:33:16.257Z,154.00
2022-11-25T18:35:59.594Z,239.50
2022-11-25T18:38:28.935Z,160.60
2022-11-25T18:41:24.761Z,138.60
2022-11-25T18:44:33.200Z,111.00
2022-11-25T18:47:28.369Z,106.50
2022-11-25T18:50:31.938Z,100.60
2022-11-25T18:53:13.831Z,98.70
2022-11-25T18:55:47.861Z,93.70
2022-11-25T18:58:28.422Z,98.50
2022-11-25T19:01:17.852Z,96.80
2022-11-25T19:04:00.427Z,93.00
2022-11-25T19:06:36.050Z,92.10
2022-11-25T19:09:08.611Z,96.70
2022-11-25T19:12:01.135Z,131.90
2022-11-25T19:14:56.993Z,173.10
2022-11-25T19:17:28.460Z,174.30
2022-11-25T19:20:01.916Z,169.00
2022-11-25T19:22:38.208Z,164.00
2022-11-25T19:25:10.739Z,163.60
2022-11-25T19:27:45.703Z,161.00
2022-11-25T19:30:18.812Z,158.00
2022-11-25T19:32:50.524Z,167.90
2022-11-25T19:35:35.828Z,165.10
2022-11-25T19:38:28.558Z,159.10
2022-11-25T19:40:58.063Z,163.40
2022-11-25T19:43:27.867Z,166.70
2022-11-25T19:45:59.129Z,165.00
2022-11-25T19:48:38.813Z,163.40
2022-11-25T19:51:09.529Z,168.00
2022-11-25T19:53:49.394Z,167.80
2022-11-25T19:56:27.064Z,164.40
2022-11-25T19:59:09.582Z,169.00
2022-11-25T20:01:46.413Z,170.90
2022-11-25T20:04:22.735Z,164.70
2022-11-25T20:06:51.900Z,172.80
2022-11-25T20:09:21.100Z,178.50
2022-11-25T20:11:56.463Z,163.30
2022-11-25T20:14:25.923Z,166.10
2022-11-25T20:16:54.976Z,155.40
2022-11-25T20:19:24.022Z,155.20
2022-11-25T20:21:54.311Z,158.40
2022-11-25T20:24:27.229Z,162.10
2022-11-25T20:26:59.416Z,166.00
2022-11-25T20:29:31.173Z,161.60
2022-11-25T20:32:34.734Z,164.90
2022-11-25T20:35:11.463Z,158.70
2022-11-25T20:37:51.407Z,161.00
2022-11-25T20:40:33.224Z,161.30
2022-11-25T20:43:20.992Z,155.70
2022-11-25T20:45:53.870Z,159.00
2022-11-25T20:48:25.675Z,154.50
2022-11-25T20:51:02.105Z,162.80
2022-11-25T20:53:32.498Z,165.10
2022-11-25T20:56:04.138Z,155.90
2022-11-25T20:58:50.843Z,145.90
2022-11-25T21:01:24.041Z,147.00
2022-11-25T21:03:54.219Z,144.00
2022-11-25T21:06:52.510Z,135.50
2022-11-25T21:09:34.630Z,130.80
2022-11-25T21:12:19.577Z,131.80
2022-11-25T21:14:51.635Z,128.90
2022-11-25T21:17:21.574Z,119.20
2022-11-25T21:19:55.059Z,120.50
2022-11-25T21:22:29.574Z,120.70
2022-11-25T21:25:01.117Z,127.60
2022-11-25T21:27:32.997Z,134.40
2022-11-25T21:30:37.524Z,125.00
2022-11-25T21:33:21.441Z,121.10
2022-11-25T21:36:08.658Z,117.70
2022-11-25T21:38:53.026Z,113.20
2022-11-25T21:42:12.197Z,124.30
2022-11-25T21:44:52.634Z,127.70
2022-11-25T21:47:29.982Z,127.50
2022-11-25T21:50:18.604Z,127.70
2022-11-25T21:53:18.731Z,125.70
2022-11-25T21:56:51.016Z,124.60
2022-11-25T22:00:02.519Z,121.10
2022-11-25T22:02:46.087Z,118.40
2022-11-25T22:05:30.649Z,117.20
2022-11-25T22:09:04.081Z,118.70
2022-11-25T22:11:41.306Z,119.00
2022-11-25T22:14:40.495Z,115.30
2022-11-25T22:17:18.241Z,114.50
2022-11-25T22:19:47.782Z,112.40
2022-11-25T22:22:18.079Z,113.80
2022-11-25T22:24:48.969Z,110.20
2022-11-25T22:27:28.723Z,108.40
2022-11-25T22:30:00.001Z,113.70
2022-11-25T22:32:29.331Z,110.70
2022-11-25T22:35:01.066Z,109.30
2022-11-25T22:37:31.616Z,112.80
2022-11-25T22:40:00.813Z,118.00
2022-11-25T22:42:32.813Z,131.20
2022-11-25T22:47:41.917Z,131.00
2022-11-25T22:50:27.720Z,125.60
2022-11-25T22:52:58.345Z,126.70
2022-11-25T22:55:32.172Z,121.10
2022-11-25T22:58:04.922Z,120.50
2022-11-25T23:00:42.803Z,116.10
2022-11-25T23:03:20.090Z,114.70
2022-11-25T23:05:51.659Z,111.30
2022-11-25T23:08:32.010Z,114.20
2022-11-25T23:11:01.328Z,110.20
2022-11-25T23:13:31.377Z,109.30
2022-11-25T23:16:04.682Z,113.10
2022-11-25T23:18:39.846Z,117.70
2022-11-25T23:21:23.618Z,104.40
2022-11-25T23:23:53.003Z,107.10
2022-11-25T23:26:29.861Z,105.90
2022-11-25T23:29:05.940Z,102.40
2022-11-25T23:31:38.543Z,106.60
2022-11-25T23:34:11.923Z,109.90
2022-11-25T23:36:47.503Z,108.00
2022-11-25T23:39:26.684Z,105.50
2022-11-25T23:41:56.444Z,107.10
2022-11-25T23:44:31.124Z,104.30
2022-11-25T23:47:06.752Z,102.80
2022-11-25T23:49:44.668Z,99.40
2022-11-25T23:52:22.879Z,103.60
2022-11-25T23:54:53.406Z,102.20
2022-11-25T23:57:31.659Z,99.90
